sensor_id;sensor_type;location;lat;lon;timestamp;P1;durP1;ratioP1;P2;durP2;ratioP2
74593;SDS011;63097;51.872;4.460;2022-08-25T00:00:34;51.60;;;33.67;;
74593;SDS011;63097;51.872;4.460;2022-08-25T00:03:00;51.92;;;34.55;;
74593;SDS011;63097;51.872;4.460;2022-08-25T00:05:26;49.73;;;34.50;;
74593;SDS011;63097;51.872;4.460;2022-08-25T00:07:53;57.63;;;36.80;;
74593;SDS011;63097;51.872;4.460;2022-08-25T00:10:18;55.63;;;37.28;;
74593;SDS011;63097;51.872;4.460;2022-08-25T00:12:44;57.70;;;38.08;;
74593;SDS011;63097;51.872;4.460;2022-08-25T00:15:09;61.58;;;38.75;;
74593;SDS011;63097;51.872;4.460;2022-08-25T00:17:35;59.80;;;39.55;;
74593;SDS011;63097;51.872;4.460;2022-08-25T00:20:00;58.85;;;39.00;;
74593;SDS011;63097;51.872;4.460;2022-08-25T00:22:25;60.38;;;39.95;;
74593;SDS011;63097;51.872;4.460;2022-08-25T00:24:50;59.47;;;38.87;;
74593;SDS011;63097;51.872;4.460;2022-08-25T00:27:16;58.80;;;37.33;;
74593;SDS011;63097;51.872;4.460;2022-08-25T00:29:41;54.67;;;37.37;;
74593;SDS011;63097;51.872;4.460;2022-08-25T00:32:06;56.27;;;37.23;;
74593;SDS011;63097;51.872;4.460;2022-08-25T00:34:33;49.90;;;34.47;;
74593;SDS011;63097;51.872;4.460;2022-08-25T00:37:02;53.00;;;35.33;;
74593;SDS011;63097;51.872;4.460;2022-08-25T00:39:28;51.67;;;34.30;;
74593;SDS011;63097;51.872;4.460;2022-08-25T00:41:54;55.15;;;33.28;;
74593;SDS011;63097;51.872;4.460;2022-08-25T00:44:21;48.90;;;32.03;;
74593;SDS011;63097;51.872;4.460;2022-08-25T00:46:57;47.88;;;31.67;;
74593;SDS011;63097;51.872;4.460;2022-08-25T00:49:36;45.55;;;31.60;;
74593;SDS011;63097;51.872;4.460;2022-08-25T00:52:10;46.87;;;30.10;;
74593;SDS011;63097;51.872;4.460;2022-08-25T00:54:50;43.33;;;29.55;;
74593;SDS011;63097;51.872;4.460;2022-08-25T00:57:20;41.55;;;29.10;;
74593;SDS011;63097;51.872;4.460;2022-08-25T00:59:48;42.40;;;27.67;;
74593;SDS011;63097;51.872;4.460;2022-08-25T01:02:14;41.28;;;27.17;;
74593;SDS011;63097;51.872;4.460;2022-08-25T01:04:40;39.80;;;27.20;;
74593;SDS011;63097;51.872;4.460;2022-08-25T01:07:06;38.47;;;25.30;;
74593;SDS011;63097;51.872;4.460;2022-08-25T01:09:32;36.50;;;23.98;;
74593;SDS011;63097;51.872;4.460;2022-08-25T01:11:57;38.85;;;23.55;;
74593;SDS011;63097;51.872;4.460;2022-08-25T01:14:24;35.78;;;23.95;;
74593;SDS011;63097;51.872;4.460;2022-08-25T01:16:50;36.70;;;24.17;;
74593;SDS011;63097;51.872;4.460;2022-08-25T01:19:16;33.63;;;22.33;;
74593;SDS011;63097;51.872;4.460;2022-08-25T01:21:43;36.20;;;22.35;;
74593;SDS011;63097;51.872;4.460;2022-08-25T01:24:28;31.02;;;21.27;;
74593;SDS011;63097;51.872;4.460;2022-08-25T01:26:59;33.60;;;21.40;;
74593;SDS011;63097;51.872;4.460;2022-08-25T01:29:24;28.48;;;20.65;;
74593;SDS011;63097;51.872;4.460;2022-08-25T01:31:57;31.65;;;20.35;;
74593;SDS011;63097;51.872;4.460;2022-08-25T01:34:29;29.33;;;20.02;;
74593;SDS011;63097;51.872;4.460;2022-08-25T01:36:56;28.50;;;18.58;;
74593;SDS011;63097;51.872;4.460;2022-08-25T01:39:23;26.70;;;18.67;;
74593;SDS011;63097;51.872;4.460;2022-08-25T01:44:27;27.55;;;17.98;;
74593;SDS011;63097;51.872;4.460;2022-08-25T01:46:53;25.00;;;16.88;;
74593;SDS011;63097;51.872;4.460;2022-08-25T01:49:19;27.30;;;17.75;;
74593;SDS011;63097;51.872;4.460;2022-08-25T01:51:51;22.75;;;15.95;;
74593;SDS011;63097;51.872;4.460;2022-08-25T01:54:38;21.92;;;15.82;;
74593;SDS011;63097;51.872;4.460;2022-08-25T01:57:03;20.95;;;15.20;;
74593;SDS011;63097;51.872;4.460;2022-08-25T01:59:29;23.08;;;15.63;;
74593;SDS011;63097;51.872;4.460;2022-08-25T02:01:54;21.73;;;15.43;;
74593;SDS011;63097;51.872;4.460;2022-08-25T02:04:20;20.92;;;14.85;;
74593;SDS011;63097;51.872;4.460;2022-08-25T02:06:45;21.88;;;14.68;;
74593;SDS011;63097;51.872;4.460;2022-08-25T02:09:11;22.70;;;14.57;;
74593;SDS011;63097;51.872;4.460;2022-08-25T02:11:39;17.38;;;13.18;;
74593;SDS011;63097;51.872;4.460;2022-08-25T02:14:07;19.60;;;13.85;;
74593;SDS011;63097;51.872;4.460;2022-08-25T02:16:34;17.83;;;13.38;;
74593;SDS011;63097;51.872;4.460;2022-08-25T02:19:02;18.48;;;13.60;;
74593;SDS011;63097;51.872;4.460;2022-08-25T02:21:29;18.88;;;13.50;;
74593;SDS011;63097;51.872;4.460;2022-08-25T02:23:55;18.60;;;12.63;;
74593;SDS011;63097;51.872;4.460;2022-08-25T02:26:20;18.53;;;12.27;;
74593;SDS011;63097;51.872;4.460;2022-08-25T02:28:46;17.57;;;12.07;;
74593;SDS011;63097;51.872;4.460;2022-08-25T02:31:12;17.70;;;12.38;;
74593;SDS011;63097;51.872;4.460;2022-08-25T02:33:38;17.23;;;11.85;;
74593;SDS011;63097;51.872;4.460;2022-08-25T02:36:04;18.13;;;11.23;;
74593;SDS011;63097;51.872;4.460;2022-08-25T02:38:29;15.98;;;10.98;;
74593;SDS011;63097;51.872;4.460;2022-08-25T02:40:56;15.25;;;11.25;;
74593;SDS011;63097;51.872;4.460;2022-08-25T02:43:22;18.27;;;10.50;;
74593;SDS011;63097;51.872;4.460;2022-08-25T02:45:48;15.02;;;10.40;;
74593;SDS011;63097;51.872;4.460;2022-08-25T02:48:13;15.23;;;10.50;;
74593;SDS011;63097;51.872;4.460;2022-08-25T02:50:38;13.18;;;9.90;;
74593;SDS011;63097;51.872;4.460;2022-08-25T02:53:04;13.05;;;9.55;;
74593;SDS011;63097;51.872;4.460;2022-08-25T02:55:29;12.48;;;9.80;;
74593;SDS011;63097;51.872;4.460;2022-08-25T02:57:54;16.07;;;9.43;;
74593;SDS011;63097;51.872;4.460;2022-08-25T03:00:20;13.43;;;8.97;;
74593;SDS011;63097;51.872;4.460;2022-08-25T03:02:45;13.05;;;9.18;;
74593;SDS011;63097;51.872;4.460;2022-08-25T03:05:11;13.85;;;9.07;;
74593;SDS011;63097;51.872;4.460;2022-08-25T03:07:37;11.95;;;8.55;;
74593;SDS011;63097;51.872;4.460;2022-08-25T03:10:04;10.75;;;8.10;;
74593;SDS011;63097;51.872;4.460;2022-08-25T03:12:31;11.05;;;8.55;;
74593;SDS011;63097;51.872;4.460;2022-08-25T03:14:56;11.60;;;8.10;;
74593;SDS011;63097;51.872;4.460;2022-08-25T03:17:21;10.70;;;7.63;;
74593;SDS011;63097;51.872;4.460;2022-08-25T03:19:46;13.03;;;8.13;;
74593;SDS011;63097;51.872;4.460;2022-08-25T03:22:12;10.77;;;7.50;;
74593;SDS011;63097;51.872;4.460;2022-08-25T03:24:37;12.97;;;7.27;;
74593;SDS011;63097;51.872;4.460;2022-08-25T03:27:02;9.50;;;7.00;;
74593;SDS011;63097;51.872;4.460;2022-08-25T03:29:29;9.88;;;7.32;;
74593;SDS011;63097;51.872;4.460;2022-08-25T03:31:57;8.23;;;6.68;;
74593;SDS011;63097;51.872;4.460;2022-08-25T03:34:23;9.70;;;6.70;;
74593;SDS011;63097;51.872;4.460;2022-08-25T03:36:49;10.90;;;7.20;;
74593;SDS011;63097;51.872;4.460;2022-08-25T03:39:17;11.82;;;7.13;;
74593;SDS011;63097;51.872;4.460;2022-08-25T03:41:44;7.53;;;6.43;;
74593;SDS011;63097;51.872;4.460;2022-08-25T03:44:09;13.23;;;6.55;;
74593;SDS011;63097;51.872;4.460;2022-08-25T03:46:39;9.73;;;6.33;;
74593;SDS011;63097;51.872;4.460;2022-08-25T03:49:07;24.10;;;6.63;;
74593;SDS011;63097;51.872;4.460;2022-08-25T03:51:35;6.60;;;5.80;;
74593;SDS011;63097;51.872;4.460;2022-08-25T03:54:04;7.70;;;5.40;;
74593;SDS011;63097;51.872;4.460;2022-08-25T03:56:29;8.57;;;5.97;;
74593;SDS011;63097;51.872;4.460;2022-08-25T03:58:55;7.00;;;5.78;;
74593;SDS011;63097;51.872;4.460;2022-08-25T04:01:21;6.20;;;5.60;;
74593;SDS011;63097;51.872;4.460;2022-08-25T04:03:47;6.35;;;5.68;;
74593;SDS011;63097;51.872;4.460;2022-08-25T04:06:13;6.63;;;5.38;;
74593;SDS011;63097;51.872;4.460;2022-08-25T04:08:40;10.18;;;5.55;;
74593;SDS011;63097;51.872;4.460;2022-08-25T04:11:06;6.85;;;5.22;;
74593;SDS011;63097;51.872;4.460;2022-08-25T04:13:33;9.77;;;5.20;;
74593;SDS011;63097;51.872;4.460;2022-08-25T04:15:59;5.82;;;5.00;;
74593;SDS011;63097;51.872;4.460;2022-08-25T04:18:24;8.67;;;5.00;;
74593;SDS011;63097;51.872;4.460;2022-08-25T04:20:49;6.03;;;4.77;;
74593;SDS011;63097;51.872;4.460;2022-08-25T04:23:14;5.90;;;4.83;;
74593;SDS011;63097;51.872;4.460;2022-08-25T04:25:40;8.88;;;4.70;;
74593;SDS011;63097;51.872;4.460;2022-08-25T04:28:05;6.55;;;4.57;;
74593;SDS011;63097;51.872;4.460;2022-08-25T04:30:30;4.70;;;4.20;;
74593;SDS011;63097;51.872;4.460;2022-08-25T04:32:55;7.23;;;4.80;;
74593;SDS011;63097;51.872;4.460;2022-08-25T04:35:21;4.87;;;4.37;;
74593;SDS011;63097;51.872;4.460;2022-08-25T04:37:46;6.53;;;4.03;;
74593;SDS011;63097;51.872;4.460;2022-08-25T04:40:11;7.20;;;4.03;;
74593;SDS011;63097;51.872;4.460;2022-08-25T04:42:36;4.57;;;4.17;;
74593;SDS011;63097;51.872;4.460;2022-08-25T04:45:02;4.77;;;3.87;;
74593;SDS011;63097;51.872;4.460;2022-08-25T04:47:27;6.50;;;3.97;;
74593;SDS011;63097;51.872;4.460;2022-08-25T04:49:53;7.80;;;4.07;;
74593;SDS011;63097;51.872;4.460;2022-08-25T04:52:18;4.73;;;3.80;;
74593;SDS011;63097;51.872;4.460;2022-08-25T04:54:44;4.47;;;3.92;;
74593;SDS011;63097;51.872;4.460;2022-08-25T04:57:09;4.43;;;3.53;;
74593;SDS011;63097;51.872;4.460;2022-08-25T04:59:35;4.00;;;3.70;;
74593;SDS011;63097;51.872;4.460;2022-08-25T05:02:00;4.00;;;3.63;;
74593;SDS011;63097;51.872;4.460;2022-08-25T05:04:26;4.28;;;3.50;;
74593;SDS011;63097;51.872;4.460;2022-08-25T05:06:51;4.20;;;3.27;;
74593;SDS011;63097;51.872;4.460;2022-08-25T05:09:16;4.57;;;3.45;;
74593;SDS011;63097;51.872;4.460;2022-08-25T05:11:42;6.53;;;3.73;;
74593;SDS011;63097;51.872;4.460;2022-08-25T05:14:07;3.60;;;3.30;;
74593;SDS011;63097;51.872;4.460;2022-08-25T05:16:32;3.55;;;3.25;;
74593;SDS011;63097;51.872;4.460;2022-08-25T05:18:57;4.93;;;3.40;;
74593;SDS011;63097;51.872;4.460;2022-08-25T05:21:24;3.70;;;2.95;;
74593;SDS011;63097;51.872;4.460;2022-08-25T05:23:58;3.30;;;3.00;;
74593;SDS011;63097;51.872;4.460;2022-08-25T05:26:25;3.78;;;2.97;;
74593;SDS011;63097;51.872;4.460;2022-08-25T05:28:52;4.57;;;3.22;;
74593;SDS011;63097;51.872;4.460;2022-08-25T05:31:19;3.15;;;2.72;;
74593;SDS011;63097;51.872;4.460;2022-08-25T05:33:45;5.45;;;3.47;;
74593;SDS011;63097;51.872;4.460;2022-08-25T05:36:11;4.00;;;2.97;;
74593;SDS011;63097;51.872;4.460;2022-08-25T05:38:38;3.63;;;3.03;;
74593;SDS011;63097;51.872;4.460;2022-08-25T05:41:04;4.03;;;3.03;;
74593;SDS011;63097;51.872;4.460;2022-08-25T05:43:32;3.85;;;2.90;;
74593;SDS011;63097;51.872;4.460;2022-08-25T05:45:57;2.75;;;2.50;;
74593;SDS011;63097;51.872;4.460;2022-08-25T05:48:24;3.10;;;2.53;;
74593;SDS011;63097;51.872;4.460;2022-08-25T05:50:51;4.57;;;2.78;;
74593;SDS011;63097;51.872;4.460;2022-08-25T05:53:16;7.50;;;2.80;;
74593;SDS011;63097;51.872;4.460;2022-08-25T05:55:43;2.93;;;2.67;;
74593;SDS011;63097;51.872;4.460;2022-08-25T05:58:09;10.48;;;2.47;;
74593;SDS011;63097;51.872;4.460;2022-08-25T06:00:34;4.65;;;2.50;;
74593;SDS011;63097;51.872;4.460;2022-08-25T06:03:00;2.38;;;2.17;;
74593;SDS011;63097;51.872;4.460;2022-08-25T06:05:26;4.07;;;2.73;;
74593;SDS011;63097;51.872;4.460;2022-08-25T06:07:51;10.20;;;3.17;;
74593;SDS011;63097;51.872;4.460;2022-08-25T06:10:17;8.40;;;2.80;;
74593;SDS011;63097;51.872;4.460;2022-08-25T06:12:43;4.13;;;2.38;;
74593;SDS011;63097;51.872;4.460;2022-08-25T06:15:15;8.95;;;2.58;;
74593;SDS011;63097;51.872;4.460;2022-08-25T06:17:45;4.45;;;2.20;;
74593;SDS011;63097;51.872;4.460;2022-08-25T06:20:13;3.67;;;2.20;;
74593;SDS011;63097;51.872;4.460;2022-08-25T06:22:40;7.00;;;2.38;;
74593;SDS011;63097;51.872;4.460;2022-08-25T06:25:06;5.60;;;2.38;;
74593;SDS011;63097;51.872;4.460;2022-08-25T06:27:33;4.05;;;2.42;;
74593;SDS011;63097;51.872;4.460;2022-08-25T06:29:58;2.78;;;2.05;;
74593;SDS011;63097;51.872;4.460;2022-08-25T06:32:24;6.65;;;2.47;;
74593;SDS011;63097;51.872;4.460;2022-08-25T06:34:49;3.50;;;2.17;;
74593;SDS011;63097;51.872;4.460;2022-08-25T06:37:15;4.27;;;2.30;;
74593;SDS011;63097;51.872;4.460;2022-08-25T06:39:40;2.93;;;2.17;;
74593;SDS011;63097;51.872;4.460;2022-08-25T06:42:05;4.72;;;1.90;;
74593;SDS011;63097;51.872;4.460;2022-08-25T06:44:30;3.45;;;1.88;;
74593;SDS011;63097;51.872;4.460;2022-08-25T06:46:56;3.77;;;2.30;;
74593;SDS011;63097;51.872;4.460;2022-08-25T06:49:21;2.53;;;1.98;;
74593;SDS011;63097;51.872;4.460;2022-08-25T06:51:47;4.07;;;2.28;;
74593;SDS011;63097;51.872;4.460;2022-08-25T06:54:12;2.00;;;1.70;;
74593;SDS011;63097;51.872;4.460;2022-08-25T06:56:38;4.50;;;2.00;;
74593;SDS011;63097;51.872;4.460;2022-08-25T06:59:06;1.80;;;1.50;;
74593;SDS011;63097;51.872;4.460;2022-08-25T07:01:32;2.25;;;1.50;;
74593;SDS011;63097;51.872;4.460;2022-08-25T07:03:58;2.95;;;2.30;;
74593;SDS011;63097;51.872;4.460;2022-08-25T07:06:25;1.92;;;1.50;;
74593;SDS011;63097;51.872;4.460;2022-08-25T07:08:52;3.50;;;1.80;;
74593;SDS011;63097;51.872;4.460;2022-08-25T07:11:18;2.72;;;1.80;;
74593;SDS011;63097;51.872;4.460;2022-08-25T07:13:44;2.33;;;1.38;;
74593;SDS011;63097;51.872;4.460;2022-08-25T07:16:09;1.88;;;1.67;;
74593;SDS011;63097;51.872;4.460;2022-08-25T07:18:35;2.53;;;1.80;;
74593;SDS011;63097;51.872;4.460;2022-08-25T07:21:01;1.65;;;1.55;;
74593;SDS011;63097;51.872;4.460;2022-08-25T07:23:26;2.95;;;1.50;;
74593;SDS011;63097;51.872;4.460;2022-08-25T07:25:53;2.50;;;1.70;;
74593;SDS011;63097;51.872;4.460;2022-08-25T07:28:19;2.38;;;1.70;;
74593;SDS011;63097;51.872;4.460;2022-08-25T07:30:46;2.03;;;1.58;;
74593;SDS011;63097;51.872;4.460;2022-08-25T07:33:11;3.33;;;1.40;;
74593;SDS011;63097;51.872;4.460;2022-08-25T07:35:37;1.83;;;1.63;;
74593;SDS011;63097;51.872;4.460;2022-08-25T07:38:03;4.93;;;1.42;;
74593;SDS011;63097;51.872;4.460;2022-08-25T07:40:31;8.40;;;1.90;;
74593;SDS011;63097;51.872;4.460;2022-08-25T07:42:59;10.18;;;1.90;;
74593;SDS011;63097;51.872;4.460;2022-08-25T07:45:27;10.18;;;1.92;;
74593;SDS011;63097;51.872;4.460;2022-08-25T07:47:59;9.60;;;1.73;;
74593;SDS011;63097;51.872;4.460;2022-08-25T07:50:27;7.68;;;1.83;;
74593;SDS011;63097;51.872;4.460;2022-08-25T07:52:54;9.85;;;1.55;;
74593;SDS011;63097;51.872;4.460;2022-08-25T07:55:20;12.43;;;1.65;;
74593;SDS011;63097;51.872;4.460;2022-08-25T07:57:46;15.70;;;1.85;;
74593;SDS011;63097;51.872;4.460;2022-08-25T08:00:12;4.10;;;1.70;;
74593;SDS011;63097;51.872;4.460;2022-08-25T08:02:39;5.28;;;1.60;;
74593;SDS011;63097;51.872;4.460;2022-08-25T08:05:05;9.07;;;1.70;;
74593;SDS011;63097;51.872;4.460;2022-08-25T08:07:31;2.75;;;1.45;;
74593;SDS011;63097;51.872;4.460;2022-08-25T08:09:56;1.58;;;1.48;;
74593;SDS011;63097;51.872;4.460;2022-08-25T08:12:23;5.20;;;1.40;;
74593;SDS011;63097;51.872;4.460;2022-08-25T08:14:49;2.15;;;1.27;;
74593;SDS011;63097;51.872;4.460;2022-08-25T08:17:15;5.20;;;1.40;;
74593;SDS011;63097;51.872;4.460;2022-08-25T08:19:40;5.25;;;1.40;;
74593;SDS011;63097;51.872;4.460;2022-08-25T08:22:06;3.90;;;1.40;;
74593;SDS011;63097;51.872;4.460;2022-08-25T08:24:31;2.45;;;1.50;;
74593;SDS011;63097;51.872;4.460;2022-08-25T08:26:58;3.92;;;1.60;;
74593;SDS011;63097;51.872;4.460;2022-08-25T08:29:23;7.73;;;1.70;;
74593;SDS011;63097;51.872;4.460;2022-08-25T08:31:48;2.92;;;1.17;;
74593;SDS011;63097;51.872;4.460;2022-08-25T08:34:14;4.57;;;1.48;;
74593;SDS011;63097;51.872;4.460;2022-08-25T08:36:39;16.80;;;1.38;;
74593;SDS011;63097;51.872;4.460;2022-08-25T08:39:05;1.77;;;1.20;;
74593;SDS011;63097;51.872;4.460;2022-08-25T08:46:59;2.65;;;1.30;;
74593;SDS011;63097;51.872;4.460;2022-08-25T08:49:32;3.78;;;1.02;;
74593;SDS011;63097;51.872;4.460;2022-08-25T08:52:04;3.10;;;1.30;;
74593;SDS011;63097;51.872;4.460;2022-08-25T08:54:33;1.55;;;1.10;;
74593;SDS011;63097;51.872;4.460;2022-08-25T08:57:13;3.05;;;1.10;;
74593;SDS011;63097;51.872;4.460;2022-08-25T08:59:51;2.60;;;1.00;;
74593;SDS011;63097;51.872;4.460;2022-08-25T09:02:25;2.05;;;1.10;;
74593;SDS011;63097;51.872;4.460;2022-08-25T09:04:58;3.33;;;1.23;;
74593;SDS011;63097;51.872;4.460;2022-08-25T09:08:10;2.03;;;1.15;;
74593;SDS011;63097;51.872;4.460;2022-08-25T09:10:18;1.65;;;1.13;;
74593;SDS011;63097;51.872;4.460;2022-08-25T09:18:06;1.35;;;1.10;;
74593;SDS011;63097;51.872;4.460;2022-08-25T09:29:01;1.55;;;1.13;;
74593;SDS011;63097;51.872;4.460;2022-08-25T09:31:37;1.63;;;1.00;;
74593;SDS011;63097;51.872;4.460;2022-08-25T09:34:37;2.00;;;1.10;;
74593;SDS011;63097;51.872;4.460;2022-08-25T09:36:57;1.53;;;0.90;;
74593;SDS011;63097;51.872;4.460;2022-08-25T09:39:23;1.15;;;0.85;;
74593;SDS011;63097;51.872;4.460;2022-08-25T09:41:57;1.33;;;0.90;;
74593;SDS011;63097;51.872;4.460;2022-08-25T09:44:24;2.10;;;1.10;;
74593;SDS011;63097;51.872;4.460;2022-08-25T09:47:23;1.63;;;0.93;;
74593;SDS011;63097;51.872;4.460;2022-08-25T09:49:50;1.52;;;0.90;;
74593;SDS011;63097;51.872;4.460;2022-08-25T09:54:52;8.18;;;1.00;;
74593;SDS011;63097;51.872;4.460;2022-08-25T09:59:54;1.58;;;0.93;;
74593;SDS011;63097;51.872;4.460;2022-08-25T10:04:50;1.30;;;1.00;;
74593;SDS011;63097;51.872;4.460;2022-08-25T10:07:23;3.72;;;1.00;;
74593;SDS011;63097;51.872;4.460;2022-08-25T10:09:55;3.85;;;0.90;;
74593;SDS011;63097;51.872;4.460;2022-08-25T10:12:31;2.83;;;1.15;;
74593;SDS011;63097;51.872;4.460;2022-08-25T10:14:59;4.90;;;1.45;;
74593;SDS011;63097;51.872;4.460;2022-08-25T10:17:39;6.95;;;1.65;;
74593;SDS011;63097;51.872;4.460;2022-08-25T10:22:36;6.40;;;1.38;;
74593;SDS011;63097;51.872;4.460;2022-08-25T10:25:03;6.32;;;1.27;;
74593;SDS011;63097;51.872;4.460;2022-08-25T10:30:11;5.72;;;1.27;;
74593;SDS011;63097;51.872;4.460;2022-08-25T10:35:28;2.83;;;1.30;;
74593;SDS011;63097;51.872;4.460;2022-08-25T10:38:11;7.28;;;1.40;;
74593;SDS011;63097;51.872;4.460;2022-08-25T10:41:03;6.95;;;1.50;;
74593;SDS011;63097;51.872;4.460;2022-08-25T10:49:33;4.15;;;1.30;;
74593;SDS011;63097;51.872;4.460;2022-08-25T10:52:12;9.15;;;1.30;;
74593;SDS011;63097;51.872;4.460;2022-08-25T10:57:35;3.80;;;1.00;;
74593;SDS011;63097;51.872;4.460;2022-08-25T11:00:17;3.40;;;1.13;;
74593;SDS011;63097;51.872;4.460;2022-08-25T11:05:40;1.98;;;1.10;;
74593;SDS011;63097;51.872;4.460;2022-08-25T11:08:12;1.67;;;0.95;;
74593;SDS011;63097;51.872;4.460;2022-08-25T11:13:14;4.88;;;0.95;;
74593;SDS011;63097;51.872;4.460;2022-08-25T11:15:49;2.13;;;0.82;;
74593;SDS011;63097;51.872;4.460;2022-08-25T11:18:18;2.25;;;1.00;;
74593;SDS011;63097;51.872;4.460;2022-08-25T11:23:37;2.40;;;0.88;;
74593;SDS011;63097;51.872;4.460;2022-08-25T11:26:07;3.10;;;1.00;;
74593;SDS011;63097;51.872;4.460;2022-08-25T11:28:41;7.78;;;1.17;;
74593;SDS011;63097;51.872;4.460;2022-08-25T11:31:16;1.50;;;1.00;;
74593;SDS011;63097;51.872;4.460;2022-08-25T11:33:43;3.38;;;0.90;;
74593;SDS011;63097;51.872;4.460;2022-08-25T11:36:11;1.42;;;1.05;;
74593;SDS011;63097;51.872;4.460;2022-08-25T11:39:35;3.10;;;1.20;;
74593;SDS011;63097;51.872;4.460;2022-08-25T11:41:58;1.55;;;0.90;;
74593;SDS011;63097;51.872;4.460;2022-08-25T11:52:56;2.58;;;0.90;;
74593;SDS011;63097;51.872;4.460;2022-08-25T11:55:28;1.75;;;0.90;;
74593;SDS011;63097;51.872;4.460;2022-08-25T12:00:47;3.97;;;1.10;;
74593;SDS011;63097;51.872;4.460;2022-08-25T12:08:47;1.70;;;1.05;;
74593;SDS011;63097;51.872;4.460;2022-08-25T12:16:41;4.60;;;1.10;;
74593;SDS011;63097;51.872;4.460;2022-08-25T12:27:08;3.33;;;1.00;;
74593;SDS011;63097;51.872;4.460;2022-08-25T12:29:44;2.35;;;1.20;;
74593;SDS011;63097;51.872;4.460;2022-08-25T12:37:23;5.80;;;1.03;;
74593;SDS011;63097;51.872;4.460;2022-08-25T12:42:21;3.23;;;1.10;;
74593;SDS011;63097;51.872;4.460;2022-08-25T12:45:30;1.20;;;0.90;;
74593;SDS011;63097;51.872;4.460;2022-08-25T12:48:41;1.98;;;0.90;;
74593;SDS011;63097;51.872;4.460;2022-08-25T12:50:58;1.10;;;0.93;;
74593;SDS011;63097;51.872;4.460;2022-08-25T13:10:39;0.98;;;0.82;;
74593;SDS011;63097;51.872;4.460;2022-08-25T13:15:44;1.23;;;0.85;;
74593;SDS011;63097;51.872;4.460;2022-08-25T13:18:22;1.95;;;1.00;;
74593;SDS011;63097;51.872;4.460;2022-08-25T13:23:45;2.78;;;0.90;;
74593;SDS011;63097;51.872;4.460;2022-08-25T13:26:13;2.05;;;0.90;;
74593;SDS011;63097;51.872;4.460;2022-08-25T13:28:41;1.33;;;0.98;;
74593;SDS011;63097;51.872;4.460;2022-08-25T13:31:14;1.08;;;0.90;;
74593;SDS011;63097;51.872;4.460;2022-08-25T13:33:51;4.13;;;0.98;;
74593;SDS011;63097;51.872;4.460;2022-08-25T13:36:19;2.38;;;0.98;;
74593;SDS011;63097;51.872;4.460;2022-08-25T13:38:45;0.80;;;0.80;;
74593;SDS011;63097;51.872;4.460;2022-08-25T13:41:17;3.58;;;0.88;;
74593;SDS011;63097;51.872;4.460;2022-08-25T13:43:44;1.23;;;0.90;;
74593;SDS011;63097;51.872;4.460;2022-08-25T13:46:09;1.25;;;0.90;;
74593;SDS011;63097;51.872;4.460;2022-08-25T13:48:35;1.73;;;0.80;;
74593;SDS011;63097;51.872;4.460;2022-08-25T13:51:09;1.50;;;0.80;;
74593;SDS011;63097;51.872;4.460;2022-08-25T13:53:48;1.00;;;0.90;;
74593;SDS011;63097;51.872;4.460;2022-08-25T13:56:26;1.15;;;0.90;;
74593;SDS011;63097;51.872;4.460;2022-08-25T13:58:54;1.02;;;0.80;;
74593;SDS011;63097;51.872;4.460;2022-08-25T14:01:21;1.08;;;0.88;;
74593;SDS011;63097;51.872;4.460;2022-08-25T14:03:50;1.08;;;0.80;;
74593;SDS011;63097;51.872;4.460;2022-08-25T14:06:26;1.15;;;1.05;;
74593;SDS011;63097;51.872;4.460;2022-08-25T14:14:01;1.15;;;0.80;;
74593;SDS011;63097;51.872;4.460;2022-08-25T14:16:28;2.58;;;0.93;;
74593;SDS011;63097;51.872;4.460;2022-08-25T14:18:58;1.20;;;1.10;;
74593;SDS011;63097;51.872;4.460;2022-08-25T14:21:28;1.02;;;0.93;;
74593;SDS011;63097;51.872;4.460;2022-08-25T14:23:55;1.05;;;1.00;;
74593;SDS011;63097;51.872;4.460;2022-08-25T14:26:21;1.65;;;1.00;;
74593;SDS011;63097;51.872;4.460;2022-08-25T14:28:47;1.23;;;1.00;;
74593;SDS011;63097;51.872;4.460;2022-08-25T14:31:14;1.70;;;0.90;;
74593;SDS011;63097;51.872;4.460;2022-08-25T14:36:23;1.88;;;1.05;;
74593;SDS011;63097;51.872;4.460;2022-08-25T14:38:49;1.20;;;0.80;;
74593;SDS011;63097;51.872;4.460;2022-08-25T14:41:14;2.30;;;1.10;;
74593;SDS011;63097;51.872;4.460;2022-08-25T14:43:40;1.08;;;0.90;;
74593;SDS011;63097;51.872;4.460;2022-08-25T14:46:13;1.27;;;0.90;;
74593;SDS011;63097;51.872;4.460;2022-08-25T14:48:44;1.00;;;0.90;;
74593;SDS011;63097;51.872;4.460;2022-08-25T14:51:13;1.42;;;0.88;;
74593;SDS011;63097;51.872;4.460;2022-08-25T14:53:40;1.15;;;0.90;;
74593;SDS011;63097;51.872;4.460;2022-08-25T14:56:06;1.85;;;1.10;;
74593;SDS011;63097;51.872;4.460;2022-08-25T14:58:31;1.10;;;1.00;;
74593;SDS011;63097;51.872;4.460;2022-08-25T15:00:56;1.45;;;1.10;;
74593;SDS011;63097;51.872;4.460;2022-08-25T15:03:33;0.90;;;0.80;;
74593;SDS011;63097;51.872;4.460;2022-08-25T15:06:01;1.05;;;0.95;;
74593;SDS011;63097;51.872;4.460;2022-08-25T15:08:28;1.67;;;1.10;;
74593;SDS011;63097;51.872;4.460;2022-08-25T15:10:53;1.63;;;1.00;;
74593;SDS011;63097;51.872;4.460;2022-08-25T15:13:19;1.25;;;1.02;;
74593;SDS011;63097;51.872;4.460;2022-08-25T15:15:44;1.23;;;1.10;;
74593;SDS011;63097;51.872;4.460;2022-08-25T15:18:10;3.67;;;0.98;;
74593;SDS011;63097;51.872;4.460;2022-08-25T15:20:35;4.80;;;0.90;;
74593;SDS011;63097;51.872;4.460;2022-08-25T15:23:00;1.23;;;1.07;;
74593;SDS011;63097;51.872;4.460;2022-08-25T15:25:26;2.60;;;0.95;;
74593;SDS011;63097;51.872;4.460;2022-08-25T15:27:52;1.08;;;0.98;;
74593;SDS011;63097;51.872;4.460;2022-08-25T15:30:17;1.30;;;1.20;;
74593;SDS011;63097;51.872;4.460;2022-08-25T15:32:42;2.47;;;1.25;;
74593;SDS011;63097;51.872;4.460;2022-08-25T15:35:08;1.43;;;1.07;;
74593;SDS011;63097;51.872;4.460;2022-08-25T15:37:33;1.13;;;1.02;;
74593;SDS011;63097;51.872;4.460;2022-08-25T15:39:58;4.47;;;1.10;;
74593;SDS011;63097;51.872;4.460;2022-08-25T15:42:24;1.50;;;1.10;;
74593;SDS011;63097;51.872;4.460;2022-08-25T15:44:50;1.60;;;1.10;;
74593;SDS011;63097;51.872;4.460;2022-08-25T15:47:15;1.10;;;1.00;;
74593;SDS011;63097;51.872;4.460;2022-08-25T15:49:40;1.63;;;1.00;;
74593;SDS011;63097;51.872;4.460;2022-08-25T15:52:06;1.20;;;1.10;;
74593;SDS011;63097;51.872;4.460;2022-08-25T15:54:31;1.20;;;1.10;;
74593;SDS011;63097;51.872;4.460;2022-08-25T15:56:56;2.97;;;1.20;;
74593;SDS011;63097;51.872;4.460;2022-08-25T15:59:22;1.33;;;1.08;;
74593;SDS011;63097;51.872;4.460;2022-08-25T16:01:47;2.13;;;1.17;;
74593;SDS011;63097;51.872;4.460;2022-08-25T16:04:13;2.45;;;1.40;;
74593;SDS011;63097;51.872;4.460;2022-08-25T16:06:39;3.13;;;1.40;;
74593;SDS011;63097;51.872;4.460;2022-08-25T16:09:04;1.60;;;1.20;;
74593;SDS011;63097;51.872;4.460;2022-08-25T16:11:31;2.03;;;1.33;;
74593;SDS011;63097;51.872;4.460;2022-08-25T16:13:57;3.05;;;1.27;;
74593;SDS011;63097;51.872;4.460;2022-08-25T16:16:23;1.45;;;1.35;;
74593;SDS011;63097;51.872;4.460;2022-08-25T16:18:51;2.53;;;1.45;;
74593;SDS011;63097;51.872;4.460;2022-08-25T16:21:27;1.60;;;1.38;;
74593;SDS011;63097;51.872;4.460;2022-08-25T16:23:55;2.55;;;1.50;;
74593;SDS011;63097;51.872;4.460;2022-08-25T16:26:24;1.40;;;1.30;;
74593;SDS011;63097;51.872;4.460;2022-08-25T16:28:50;1.40;;;1.20;;
74593;SDS011;63097;51.872;4.460;2022-08-25T16:31:16;1.65;;;1.27;;
74593;SDS011;63097;51.872;4.460;2022-08-25T16:33:42;3.28;;;1.35;;
74593;SDS011;63097;51.872;4.460;2022-08-25T16:36:12;2.03;;;1.52;;
74593;SDS011;63097;51.872;4.460;2022-08-25T16:38:38;3.60;;;1.67;;
74593;SDS011;63097;51.872;4.460;2022-08-25T16:41:05;1.65;;;1.40;;
74593;SDS011;63097;51.872;4.460;2022-08-25T16:43:34;2.67;;;1.60;;
74593;SDS011;63097;51.872;4.460;2022-08-25T16:46:01;1.73;;;1.60;;
74593;SDS011;63097;51.872;4.460;2022-08-25T16:48:28;4.95;;;1.85;;